createdAt,value
2022-10-16T00:01:16.336Z,59.25
2022-10-16T00:03:50.993Z,58.77
2022-10-16T00:06:21.478Z,58.99
2022-10-16T00:08:50.817Z,59.45
2022-10-16T00:11:19.865Z,59.27
2022-10-16T00:13:54.788Z,58.92
2022-10-16T00:16:23.363Z,59.37
2022-10-16T00:18:54.552Z,59.96
2022-10-16T00:21:25.079Z,59.67
2022-10-16T00:24:15.555Z,59.91
2022-10-16T00:26:45.055Z,60.29
2022-10-16T00:29:21.707Z,59.87
2022-10-16T00:31:50.251Z,59.81
2022-10-16T00:34:21.510Z,58.75
2022-10-16T00:36:51.429Z,59.28
2022-10-16T00:39:20.784Z,59.79
2022-10-16T00:41:49.322Z,59.35
2022-10-16T00:44:36.745Z,59.58
2022-10-16T00:47:06.595Z,59.95
2022-10-16T00:49:35.679Z,59.54
2022-10-16T00:52:09.446Z,59.76
2022-10-16T00:54:39.851Z,60.06
2022-10-16T00:57:11.383Z,59.65
2022-10-16T00:59:41.822Z,59.75
2022-10-16T01:02:12.937Z,59.70
2022-10-16T01:04:42.276Z,59.91
2022-10-16T01:07:16.811Z,60.24
2022-10-16T01:09:53.861Z,60.35
2022-10-16T01:12:24.229Z,60.37
2022-10-16T01:14:55.256Z,60.25
2022-10-16T01:17:24.844Z,59.99
2022-10-16T01:19:59.302Z,60.41
2022-10-16T01:22:30.628Z,60.30
2022-10-16T01:25:00.155Z,60.26
2022-10-16T01:27:30.501Z,60.34
2022-10-16T01:30:01.509Z,60.55
2022-10-16T01:32:31.352Z,60.43
2022-10-16T01:35:02.628Z,60.69
2022-10-16T01:37:38.251Z,60.34
2022-10-16T01:40:12.569Z,60.36
2022-10-16T01:42:45.935Z,60.67
2022-10-16T01:45:19.363Z,60.65
2022-10-16T01:47:50.074Z,60.47
2022-10-16T01:50:19.377Z,60.59
2022-10-16T01:52:49.020Z,61.44
2022-10-16T01:55:18.527Z,61.14
2022-10-16T02:00:18.997Z,61.34
2022-10-16T02:02:53.687Z,61.32
2022-10-16T02:05:23.197Z,61.81
2022-10-16T02:07:52.134Z,62.06
2022-10-16T02:10:20.498Z,62.76
2022-10-16T02:13:00.342Z,62.34
2022-10-16T02:15:29.244Z,62.11
2022-10-16T02:18:01.721Z,61.52
2022-10-16T02:23:06.231Z,61.29
2022-10-16T02:25:39.155Z,62.14
2022-10-16T02:28:11.228Z,61.79
2022-10-16T02:30:43.621Z,61.67
2022-10-16T02:33:12.730Z,61.37
2022-10-16T02:35:42.167Z,61.43
2022-10-16T02:38:12.192Z,61.58
2022-10-16T02:40:43.635Z,61.58
2022-10-16T02:43:13.599Z,61.44
2022-10-16T02:45:44.315Z,61.47
2022-10-16T02:48:13.514Z,61.11
2022-10-16T02:50:45.187Z,61.42
2022-10-16T02:53:13.791Z,61.63
2022-10-16T02:55:43.042Z,61.75
2022-10-16T03:00:49.765Z,61.77
2022-10-16T03:03:18.390Z,61.84
2022-10-16T03:05:50.906Z,62.09
2022-10-16T03:08:25.054Z,62.20
2022-10-16T03:11:01.549Z,61.85
2022-10-16T03:13:35.048Z,61.72
2022-10-16T03:16:03.580Z,61.59
2022-10-16T03:18:32.884Z,61.93
2022-10-16T03:21:01.418Z,61.65
2022-10-16T03:23:33.240Z,61.99
2022-10-16T03:26:02.604Z,61.91
2022-10-16T03:28:38.729Z,61.83
2022-10-16T03:31:07.980Z,61.90
2022-10-16T03:33:41.055Z,61.60
2022-10-16T03:36:09.600Z,61.72
2022-10-16T03:38:41.678Z,61.98
2022-10-16T03:41:10.286Z,62.16
2022-10-16T03:43:45.195Z,62.17
2022-10-16T03:46:13.790Z,62.05
2022-10-16T03:48:46.181Z,62.32
2022-10-16T03:51:14.783Z,62.57
2022-10-16T03:53:46.896Z,62.38
2022-10-16T03:56:15.654Z,62.61
2022-10-16T03:58:49.035Z,62.37
2022-10-16T04:01:17.786Z,62.26
2022-10-16T04:03:46.970Z,61.87
2022-10-16T04:06:15.234Z,62.20
2022-10-16T04:08:53.360Z,62.63
2022-10-16T04:11:21.948Z,62.33
2022-10-16T04:13:51.864Z,62.07
2022-10-16T04:16:20.265Z,62.13
2022-10-16T04:18:49.194Z,61.76
2022-10-16T04:21:18.119Z,62.27
2022-10-16T04:23:46.589Z,62.03
2022-10-16T04:26:19.024Z,62.19
2022-10-16T04:31:37.079Z,62.16
2022-10-16T04:34:08.253Z,62.66
2022-10-16T04:36:39.876Z,62.41
2022-10-16T04:39:08.150Z,62.39
2022-10-16T04:41:39.600Z,62.44
2022-10-16T04:44:08.256Z,62.23
2022-10-16T04:46:41.007Z,62.55
2022-10-16T04:49:09.316Z,62.12
2022-10-16T04:51:41.482Z,62.26
2022-10-16T04:54:10.369Z,62.44
2022-10-16T04:56:48.718Z,62.23
2022-10-16T04:59:17.005Z,62.84
2022-10-16T05:01:47.203Z,62.40
2022-10-16T05:04:16.376Z,62.08
2022-10-16T05:06:50.240Z,62.33
2022-10-16T05:09:18.834Z,62.53
2022-10-16T05:11:48.619Z,62.49
2022-10-16T05:14:16.891Z,62.90
2022-10-16T05:16:52.242Z,62.01
2022-10-16T05:19:29.073Z,61.58
2022-10-16T05:21:59.629Z,62.45
2022-10-16T05:24:36.633Z,62.23
2022-10-16T05:27:05.551Z,62.10
2022-10-16T05:29:37.231Z,62.45
2022-10-16T05:32:07.506Z,62.23
2022-10-16T05:34:44.633Z,62.67
2022-10-16T05:37:16.214Z,63.29
2022-10-16T05:39:47.481Z,63.40
2022-10-16T05:42:19.552Z,63.64
2022-10-16T05:44:47.833Z,62.89
2022-10-16T05:47:22.347Z,62.69
2022-10-16T05:49:50.645Z,62.48
2022-10-16T05:52:27.277Z,62.68
2022-10-16T05:54:55.899Z,62.73
2022-10-16T05:57:26.141Z,62.27
2022-10-16T05:59:54.698Z,62.68
2022-10-16T06:02:27.213Z,62.96
2022-10-16T06:04:56.118Z,63.30
2022-10-16T06:07:30.063Z,63.37
2022-10-16T06:09:58.603Z,63.31
2022-10-16T06:12:30.569Z,62.69
2022-10-16T06:14:59.772Z,62.92
2022-10-16T06:17:30.546Z,63.02
2022-10-16T06:19:59.226Z,62.96
2022-10-16T06:22:28.386Z,62.65
2022-10-16T06:24:57.911Z,62.84
2022-10-16T06:27:27.174Z,62.42
2022-10-16T06:29:58.277Z,62.56
2022-10-16T06:32:28.628Z,62.91
2022-10-16T06:34:59.336Z,63.03
2022-10-16T06:37:29.283Z,62.71
2022-10-16T06:39:58.349Z,62.56
2022-10-16T06:42:27.177Z,62.40
2022-10-16T06:44:57.065Z,62.03
2022-10-16T06:47:25.891Z,62.21
2022-10-16T06:49:57.583Z,62.06
2022-10-16T06:52:28.202Z,61.54
2022-10-16T06:54:56.944Z,61.51
2022-10-16T06:57:26.722Z,61.40
2022-10-16T06:59:55.756Z,61.45
2022-10-16T07:02:26.405Z,60.95
2022-10-16T07:04:56.186Z,61.02
2022-10-16T07:07:25.780Z,60.92
2022-10-16T07:09:56.613Z,60.57
2022-10-16T07:12:31.535Z,60.05
2022-10-16T07:15:07.058Z,59.55
2022-10-16T07:17:35.656Z,59.42
2022-10-16T07:20:05.683Z,59.12
2022-10-16T07:22:34.260Z,58.67
2022-10-16T07:25:12.080Z,59.29
2022-10-16T07:27:40.733Z,58.25
2022-10-16T07:30:18.403Z,58.14
2022-10-16T07:32:53.482Z,58.40
2022-10-16T07:35:23.588Z,57.70
2022-10-16T07:37:53.599Z,58.01
2022-10-16T07:40:23.615Z,58.66
2022-10-16T07:42:56.286Z,58.21
2022-10-16T07:45:24.885Z,57.50
2022-10-16T07:47:53.972Z,57.13
2022-10-16T07:50:22.604Z,57.86
2022-10-16T07:52:53.689Z,58.15
2022-10-16T07:55:24.868Z,57.77
2022-10-16T08:00:27.211Z,57.91
2022-10-16T08:03:01.397Z,57.09
2022-10-16T08:05:29.765Z,57.14
2022-10-16T08:08:02.011Z,57.85
2022-10-16T08:10:32.695Z,57.19
2022-10-16T08:13:03.406Z,56.61
2022-10-16T08:15:31.861Z,57.40
2022-10-16T08:18:04.748Z,57.31
2022-10-16T08:20:33.889Z,57.02
2022-10-16T08:23:03.705Z,56.33
2022-10-16T08:25:34.323Z,55.98
2022-10-16T08:28:12.827Z,56.15
2022-10-16T08:30:43.384Z,55.86
2022-10-16T08:33:54.778Z,56.57
2022-10-16T08:36:46.818Z,57.41
2022-10-16T08:39:26.210Z,55.71
2022-10-16T08:42:51.292Z,55.32
2022-10-16T08:45:36.554Z,55.82
2022-10-16T08:48:38.204Z,55.28
2022-10-16T08:51:06.987Z,55.59
2022-10-16T08:53:37.707Z,55.39
2022-10-16T08:56:06.726Z,55.17
2022-10-16T08:58:39.672Z,55.03
2022-10-16T09:01:20.622Z,54.81
2022-10-16T09:04:03.789Z,55.16
2022-10-16T09:06:42.300Z,53.60
2022-10-16T09:09:31.602Z,54.37
2022-10-16T09:12:01.627Z,54.65
2022-10-16T09:14:37.954Z,54.89
2022-10-16T09:17:10.630Z,54.58
2022-10-16T09:19:40.840Z,53.98
2022-10-16T09:22:12.024Z,53.52
2022-10-16T09:24:41.264Z,54.29
2022-10-16T09:27:13.346Z,54.53
2022-10-16T09:29:42.235Z,54.26
2022-10-16T09:32:14.960Z,55.66
2022-10-16T09:34:48.411Z,54.94
2022-10-16T09:37:21.758Z,53.80
2022-10-16T09:39:55.013Z,53.31
2022-10-16T09:42:27.018Z,52.93
2022-10-16T09:44:59.295Z,52.91
2022-10-16T09:47:30.271Z,53.65
2022-10-16T09:50:03.491Z,52.87
2022-10-16T09:52:32.135Z,52.39
2022-10-16T09:55:04.843Z,53.12
2022-10-16T09:57:33.197Z,51.61
2022-10-16T10:00:05.534Z,51.75
2022-10-16T10:02:37.023Z,51.15
2022-10-16T10:05:07.549Z,51.67
2022-10-16T10:07:38.345Z,51.16
2022-10-16T10:10:07.857Z,51.67
2022-10-16T10:12:37.636Z,51.28
2022-10-16T10:15:12.155Z,51.29
2022-10-16T10:17:52.436Z,51.17
2022-10-16T10:20:25.310Z,51.23
2022-10-16T10:23:01.794Z,50.86
2022-10-16T10:25:37.538Z,50.21
2022-10-16T10:28:09.599Z,50.93
2022-10-16T10:30:45.389Z,50.48
2022-10-16T10:33:27.093Z,50.19
2022-10-16T10:35:59.204Z,51.01
2022-10-16T10:38:33.843Z,51.37
2022-10-16T10:41:07.508Z,50.45
2022-10-16T10:43:44.523Z,50.08
2022-10-16T10:46:14.556Z,49.66
2022-10-16T10:48:59.473Z,49.57
2022-10-16T10:51:32.883Z,49.57
2022-10-16T10:54:12.818Z,49.78
2022-10-16T10:56:45.551Z,49.76
2022-10-16T10:59:35.603Z,50.07
2022-10-16T11:02:05.565Z,49.04
2022-10-16T11:04:49.684Z,49.66
2022-10-16T11:07:21.092Z,48.68
2022-10-16T11:09:50.245Z,48.20
2022-10-16T11:12:22.901Z,49.06
2022-10-16T11:14:55.431Z,48.30
2022-10-16T11:17:34.125Z,48.44
2022-10-16T11:20:05.337Z,48.37
2022-10-16T11:22:37.190Z,47.69
2022-10-16T11:25:14.055Z,47.42
2022-10-16T11:27:47.176Z,48.02
2022-10-16T11:30:16.720Z,48.29
2022-10-16T11:32:51.545Z,47.23
2022-10-16T11:35:22.736Z,47.00
2022-10-16T11:38:01.862Z,47.24
2022-10-16T11:40:31.409Z,47.34
2022-10-16T11:43:01.466Z,47.09
2022-10-16T11:45:35.889Z,46.96
2022-10-16T11:48:05.633Z,46.65
2022-10-16T11:50:39.872Z,46.05
2022-10-16T11:53:17.820Z,45.63
2022-10-16T11:55:47.639Z,46.78
2022-10-16T12:00:49.869Z,45.73
2022-10-16T12:03:22.114Z,45.33
2022-10-16T12:05:55.191Z,46.02
2022-10-16T12:08:28.139Z,45.60
2022-10-16T12:11:06.454Z,45.39
2022-10-16T12:13:36.398Z,44.75
2022-10-16T12:16:09.453Z,45.06
2022-10-16T12:18:38.510Z,44.67
2022-10-16T12:21:08.767Z,45.11
2022-10-16T12:23:40.572Z,44.69
2022-10-16T12:26:14.742Z,45.31
2022-10-16T12:28:50.276Z,44.46
2022-10-16T12:31:30.682Z,45.78
2022-10-16T12:34:04.870Z,45.32
2022-10-16T12:36:35.650Z,45.64
2022-10-16T12:39:05.385Z,46.10
2022-10-16T12:41:39.234Z,45.54
2022-10-16T12:44:08.064Z,45.40
2022-10-16T12:46:40.246Z,45.84
2022-10-16T12:49:22.599Z,46.17
2022-10-16T12:51:51.805Z,44.77
2022-10-16T12:54:22.926Z,45.28
2022-10-16T12:56:54.691Z,45.43
2022-10-16T12:59:28.715Z,44.91
2022-10-16T13:02:06.677Z,44.90
2022-10-16T13:05:11.476Z,45.26
2022-10-16T13:07:44.960Z,45.02
2022-10-16T13:10:25.680Z,43.81
2022-10-16T13:13:03.047Z,44.46
2022-10-16T13:15:47.610Z,45.95
2022-10-16T13:18:22.242Z,44.36
2022-10-16T13:20:56.711Z,45.74
2022-10-16T13:23:29.293Z,45.41
2022-10-16T13:26:07.013Z,45.15
2022-10-16T13:28:37.306Z,45.25
2022-10-16T13:31:16.109Z,44.24
2022-10-16T13:33:46.280Z,43.38
2022-10-16T13:36:22.716Z,44.55
2022-10-16T13:39:11.286Z,45.12
2022-10-16T13:41:42.039Z,45.40
2022-10-16T13:44:14.547Z,44.46
2022-10-16T13:46:43.110Z,44.15
2022-10-16T13:49:15.875Z,44.87
2022-10-16T13:51:57.209Z,44.86
2022-10-16T13:54:26.904Z,44.19
2022-10-16T13:57:03.566Z,45.83
2022-10-16T13:59:41.783Z,45.24
2022-10-16T14:02:12.821Z,46.15
2022-10-16T14:04:48.880Z,46.02
2022-10-16T14:07:23.905Z,46.42
2022-10-16T14:09:53.577Z,46.54
2022-10-16T14:12:28.363Z,45.59
2022-10-16T14:14:58.930Z,45.80
2022-10-16T14:17:28.751Z,46.63
2022-10-16T14:20:00.937Z,45.81
2022-10-16T14:22:32.687Z,46.73
2022-10-16T14:25:01.935Z,47.48
2022-10-16T14:27:38.328Z,47.75
2022-10-16T14:30:17.834Z,47.74
2022-10-16T14:32:55.326Z,47.17
2022-10-16T14:35:25.074Z,47.39
2022-10-16T14:37:58.795Z,47.66
2022-10-16T14:40:28.134Z,47.62
2022-10-16T14:43:01.262Z,47.34
2022-10-16T14:45:39.964Z,47.85
2022-10-16T14:48:08.695Z,48.51
2022-10-16T14:50:41.293Z,48.00
2022-10-16T14:53:11.245Z,48.29
2022-10-16T14:55:59.029Z,48.71
2022-10-16T15:02:16.085Z,48.12
2022-10-16T15:04:59.144Z,48.83
2022-10-16T15:07:27.901Z,48.94
2022-10-16T15:09:58.356Z,49.08
2022-10-16T15:12:27.011Z,49.49
2022-10-16T15:14:58.108Z,49.89
2022-10-16T15:17:29.725Z,50.31
2022-10-16T15:20:05.946Z,49.94
2022-10-16T15:22:35.109Z,49.97
2022-10-16T15:25:06.659Z,50.12
2022-10-16T15:27:43.346Z,50.34
2022-10-16T15:30:12.321Z,50.32
2022-10-16T15:32:48.277Z,50.70
2022-10-16T15:35:18.251Z,50.65
2022-10-16T15:37:48.397Z,50.95
2022-10-16T15:40:17.157Z,51.00
2022-10-16T15:42:50.524Z,51.26
2022-10-16T15:45:20.446Z,51.43
2022-10-16T15:47:52.328Z,51.67
2022-10-16T15:50:22.675Z,51.88
2022-10-16T15:52:51.899Z,52.59
2022-10-16T15:55:20.957Z,52.83
2022-10-16T15:57:51.263Z,53.09
2022-10-16T16:00:26.487Z,53.39
2022-10-16T16:02:56.640Z,54.07
2022-10-16T16:05:26.349Z,54.36
2022-10-16T16:07:58.216Z,54.54
2022-10-16T16:10:27.097Z,54.82
2022-10-16T16:13:00.133Z,55.00
2022-10-16T16:15:28.750Z,55.22
2022-10-16T16:17:58.534Z,55.39
2022-10-16T16:20:28.930Z,55.40
2022-10-16T16:23:01.903Z,56.48
2022-10-16T16:25:30.800Z,56.33
2022-10-16T16:28:08.196Z,56.36
2022-10-16T16:30:37.077Z,56.47
2022-10-16T16:33:09.041Z,56.80
2022-10-16T16:35:38.984Z,56.97
2022-10-16T16:38:15.812Z,57.11
2022-10-16T16:40:47.133Z,57.25
2022-10-16T16:43:16.470Z,57.58
2022-10-16T16:45:45.751Z,57.74
2022-10-16T16:48:15.797Z,57.72
2022-10-16T16:50:51.385Z,57.98
2022-10-16T16:53:21.424Z,58.37
2022-10-16T16:55:51.047Z,58.58
2022-10-16T17:00:57.070Z,58.66
2022-10-16T17:03:38.643Z,58.60
2022-10-16T17:06:08.443Z,57.98
2022-10-16T17:08:39.137Z,58.40
2022-10-16T17:11:08.407Z,58.78
2022-10-16T17:13:40.649Z,58.81
2022-10-16T17:16:09.681Z,58.67
2022-10-16T17:18:44.515Z,59.28
2022-10-16T17:21:28.396Z,59.55
2022-10-16T17:24:05.342Z,59.17
2022-10-16T17:26:45.750Z,58.75
2022-10-16T17:29:15.201Z,58.82
2022-10-16T17:31:47.240Z,58.77
2022-10-16T17:34:16.419Z,59.17
2022-10-16T17:36:48.259Z,59.61
2022-10-16T17:39:20.947Z,59.55
2022-10-16T17:41:54.009Z,59.46
2022-10-16T17:44:24.173Z,58.73
2022-10-16T17:47:02.423Z,58.94
2022-10-16T17:49:32.784Z,58.94
2022-10-16T17:52:03.533Z,59.29
2022-10-16T17:54:36.761Z,59.93
2022-10-16T17:57:05.991Z,60.31
2022-10-16T17:59:38.977Z,60.51
2022-10-16T18:02:08.618Z,60.59
2022-10-16T18:04:38.488Z,60.17
2022-10-16T18:07:07.573Z,60.81
2022-10-16T18:10:09.787Z,61.00
2022-10-16T18:12:31.352Z,61.23
2022-10-16T18:15:04.973Z,61.25
2022-10-16T18:17:38.405Z,61.35
2022-10-16T18:20:11.799Z,61.40
2022-10-16T18:25:16.987Z,62.13
2022-10-16T18:27:49.509Z,61.67
2022-10-16T18:30:19.754Z,61.54
2022-10-16T18:32:54.701Z,61.51
2022-10-16T18:35:24.115Z,61.34
2022-10-16T18:37:56.525Z,61.99
2022-10-16T18:40:27.519Z,61.97
2022-10-16T18:43:02.962Z,62.02
2022-10-16T18:45:39.905Z,62.11
2022-10-16T18:48:09.149Z,62.33
2022-10-16T18:50:38.635Z,62.01
2022-10-16T18:53:07.480Z,62.26
2022-10-16T18:55:39.414Z,62.94
2022-10-16T19:00:39.444Z,62.45
2022-10-16T19:03:08.944Z,62.65
2022-10-16T19:05:41.893Z,62.99
2022-10-16T19:08:11.476Z,62.67
2022-10-16T19:10:49.354Z,62.93
2022-10-16T19:13:19.932Z,62.99
2022-10-16T19:15:58.645Z,63.28
2022-10-16T19:18:39.995Z,63.06
2022-10-16T19:21:10.310Z,63.11
2022-10-16T19:23:39.978Z,63.12
2022-10-16T19:26:13.366Z,63.31
2022-10-16T19:28:42.529Z,63.36
2022-10-16T19:31:13.261Z,63.61
2022-10-16T19:33:42.934Z,63.53
2022-10-16T19:36:13.602Z,63.44
2022-10-16T19:38:43.395Z,63.37
2022-10-16T19:41:18.407Z,63.30
2022-10-16T19:43:55.856Z,63.54
2022-10-16T19:46:24.992Z,63.06
2022-10-16T19:49:01.247Z,62.68
2022-10-16T19:51:31.270Z,63.22
2022-10-16T19:54:02.408Z,63.04
2022-10-16T19:56:32.845Z,63.11
2022-10-16T19:59:05.220Z,62.88
2022-10-16T20:01:34.112Z,62.63
2022-10-16T20:04:06.308Z,62.61
2022-10-16T20:06:34.612Z,62.45
2022-10-16T20:09:03.605Z,62.47
2022-10-16T20:11:33.647Z,62.46
2022-10-16T20:14:08.403Z,63.00
2022-10-16T20:16:37.250Z,63.11
2022-10-16T20:19:08.971Z,63.01
2022-10-16T20:21:39.676Z,63.04
2022-10-16T20:24:16.268Z,63.61
2022-10-16T20:26:49.345Z,63.44
2022-10-16T20:29:21.284Z,63.75
2022-10-16T20:31:50.375Z,64.01
2022-10-16T20:34:18.962Z,64.04
2022-10-16T20:36:52.798Z,64.21
2022-10-16T20:39:21.414Z,64.17
2022-10-16T20:41:56.389Z,64.26
2022-10-16T20:44:26.316Z,64.40
2022-10-16T20:46:56.793Z,64.02
2022-10-16T20:49:40.296Z,65.05
2022-10-16T20:52:10.904Z,64.55
2022-10-16T20:54:45.846Z,64.52
2022-10-16T20:57:14.632Z,64.72
2022-10-16T20:59:47.715Z,65.01
2022-10-16T21:02:16.099Z,64.60
2022-10-16T21:04:48.371Z,64.60
2022-10-16T21:07:17.200Z,64.83
2022-10-16T21:09:53.294Z,64.57
2022-10-16T21:12:27.345Z,64.59
2022-10-16T21:15:13.817Z,64.60
2022-10-16T21:17:42.778Z,64.75
2022-10-16T21:20:19.156Z,64.71
2022-10-16T21:22:52.018Z,64.98
2022-10-16T21:25:21.593Z,64.81
2022-10-16T21:27:56.041Z,65.31
2022-10-16T21:30:26.268Z,65.22
2022-10-16T21:32:57.084Z,65.36
2022-10-16T21:35:25.978Z,65.21
2022-10-16T21:37:54.551Z,65.02
2022-10-16T21:40:23.492Z,64.92
2022-10-16T21:42:53.981Z,65.19
2022-10-16T21:45:27.210Z,65.36
2022-10-16T21:47:59.098Z,65.04
2022-10-16T21:50:27.720Z,65.47
2022-10-16T21:53:02.417Z,65.44
2022-10-16T21:55:31.038Z,65.69
2022-10-16T22:00:32.177Z,65.84
2022-10-16T22:03:01.939Z,65.89
2022-10-16T22:05:31.139Z,65.58
2022-10-16T22:08:01.388Z,65.57
2022-10-16T22:10:34.005Z,65.54
2022-10-16T22:13:08.881Z,65.86
2022-10-16T22:15:38.878Z,65.63
2022-10-16T22:18:09.890Z,65.70
2022-10-16T22:20:38.548Z,65.08
2022-10-16T22:23:09.847Z,65.48
2022-10-16T22:25:39.074Z,65.29
2022-10-16T22:28:08.041Z,64.85
2022-10-16T22:30:41.187Z,64.89
2022-10-16T22:33:11.401Z,65.02
2022-10-16T22:35:40.669Z,65.31
2022-10-16T22:38:11.416Z,65.25
2022-10-16T22:40:40.011Z,65.32
2022-10-16T22:43:08.651Z,65.08
2022-10-16T22:45:37.544Z,65.20
2022-10-16T22:48:10.131Z,65.35
2022-10-16T22:50:39.107Z,65.38
2022-10-16T22:53:11.915Z,65.79
2022-10-16T22:55:40.474Z,65.85
2022-10-16T22:58:09.056Z,65.25
2022-10-16T23:00:39.204Z,65.29
2022-10-16T23:03:08.957Z,66.12
2022-10-16T23:05:40.398Z,65.97
2022-10-16T23:08:10.262Z,66.27
2022-10-16T23:10:42.761Z,66.59
2022-10-16T23:13:11.031Z,66.89
2022-10-16T23:15:40.675Z,66.93
2022-10-16T23:18:10.647Z,66.57
2022-10-16T23:20:44.357Z,66.52
2022-10-16T23:23:12.894Z,66.33
2022-10-16T23:25:46.365Z,66.18
2022-10-16T23:30:44.454Z,65.94
2022-10-16T23:33:14.438Z,65.83
2022-10-16T23:35:45.298Z,66.37
2022-10-16T23:38:15.911Z,66.38
2022-10-16T23:40:48.924Z,65.72
2022-10-16T23:43:17.206Z,65.99
2022-10-16T23:45:52.400Z,66.39
2022-10-16T23:48:22.100Z,66.59
2022-10-16T23:50:52.740Z,66.33
2022-10-16T23:53:21.648Z,66.32
2022-10-16T23:55:54.031Z,66.65
